sensor_id;sensor_type;location;lat;lon;timestamp;temperature;humidity
40556;DHT22;26250;45.422;11.100;2023-08-07T00:02:07;21.80;81.40
40556;DHT22;26250;45.422;11.100;2023-08-07T00:04:33;21.70;81.80
40556;DHT22;26250;45.422;11.100;2023-08-07T00:07:00;21.70;84.10
40556;DHT22;26250;45.422;11.100;2023-08-07T00:09:28;21.70;84.30
40556;DHT22;26250;45.422;11.100;2023-08-07T00:11:55;21.60;82.30
40556;DHT22;26250;45.422;11.100;2023-08-07T00:14:22;21.50;82.50
40556;DHT22;26250;45.422;11.100;2023-08-07T00:16:49;21.50;82.90
40556;DHT22;26250;45.422;11.100;2023-08-07T00:19:16;21.40;82.90
40556;DHT22;26250;45.422;11.100;2023-08-07T00:21:46;21.40;83.60
40556;DHT22;26250;45.422;11.100;2023-08-07T00:24:13;21.40;82.70
40556;DHT22;26250;45.422;11.100;2023-08-07T00:26:40;21.40;82.80
40556;DHT22;26250;45.422;11.100;2023-08-07T00:29:06;21.30;82.20
40556;DHT22;26250;45.422;11.100;2023-08-07T00:31:33;21.30;82.60
40556;DHT22;26250;45.422;11.100;2023-08-07T00:34:01;21.10;83.80
40556;DHT22;26250;45.422;11.100;2023-08-07T00:36:29;21.20;84.20
40556;DHT22;26250;45.422;11.100;2023-08-07T00:38:56;21.30;83.30
40556;DHT22;26250;45.422;11.100;2023-08-07T00:41:23;21.30;84.70
40556;DHT22;26250;45.422;11.100;2023-08-07T00:43:52;21.30;83.40
40556;DHT22;26250;45.422;11.100;2023-08-07T00:46:20;21.30;83.40
40556;DHT22;26250;45.422;11.100;2023-08-07T00:48:48;21.20;83.80
40556;DHT22;26250;45.422;11.100;2023-08-07T00:51:15;21.20;83.50
40556;DHT22;26250;45.422;11.100;2023-08-07T00:53:42;21.30;83.70
40556;DHT22;26250;45.422;11.100;2023-08-07T00:56:09;21.20;81.60
40556;DHT22;26250;45.422;11.100;2023-08-07T00:58:38;21.00;82.80
40556;DHT22;26250;45.422;11.100;2023-08-07T01:01:06;21.00;84.80
40556;DHT22;26250;45.422;11.100;2023-08-07T01:03:33;21.10;85.10
40556;DHT22;26250;45.422;11.100;2023-08-07T01:06:01;21.20;82.20
40556;DHT22;26250;45.422;11.100;2023-08-07T01:08:28;21.20;82.20
40556;DHT22;26250;45.422;11.100;2023-08-07T01:13:49;21.20;81.40
40556;DHT22;26250;45.422;11.100;2023-08-07T01:16:25;21.20;81.10
40556;DHT22;26250;45.422;11.100;2023-08-07T01:18:54;21.10;80.90
40556;DHT22;26250;45.422;11.100;2023-08-07T01:21:22;21.00;81.20
40556;DHT22;26250;45.422;11.100;2023-08-07T01:23:49;21.00;81.40
40556;DHT22;26250;45.422;11.100;2023-08-07T01:26:19;20.90;82.50
40556;DHT22;26250;45.422;11.100;2023-08-07T01:29:06;20.90;82.60
40556;DHT22;26250;45.422;11.100;2023-08-07T01:31:36;20.80;82.70
40556;DHT22;26250;45.422;11.100;2023-08-07T01:34:11;20.80;82.70
40556;DHT22;26250;45.422;11.100;2023-08-07T01:36:41;20.80;83.20
40556;DHT22;26250;45.422;11.100;2023-08-07T01:39:09;20.80;83.30
40556;DHT22;26250;45.422;11.100;2023-08-07T01:41:37;20.70;84.00
40556;DHT22;26250;45.422;11.100;2023-08-07T01:44:04;20.60;84.20
40556;DHT22;26250;45.422;11.100;2023-08-07T01:46:31;20.40;84.60
40556;DHT22;26250;45.422;11.100;2023-08-07T01:48:58;20.40;84.10
40556;DHT22;26250;45.422;11.100;2023-08-07T01:51:25;20.40;84.60
40556;DHT22;26250;45.422;11.100;2023-08-07T01:53:52;20.50;84.10
40556;DHT22;26250;45.422;11.100;2023-08-07T01:56:19;20.40;84.20
40556;DHT22;26250;45.422;11.100;2023-08-07T01:58:46;20.30;83.30
40556;DHT22;26250;45.422;11.100;2023-08-07T02:01:13;20.30;83.20
40556;DHT22;26250;45.422;11.100;2023-08-07T02:03:40;20.20;83.10
40556;DHT22;26250;45.422;11.100;2023-08-07T02:06:07;20.30;84.00
40556;DHT22;26250;45.422;11.100;2023-08-07T02:08:34;20.40;83.90
40556;DHT22;26250;45.422;11.100;2023-08-07T02:11:02;20.40;86.00
40556;DHT22;26250;45.422;11.100;2023-08-07T02:13:29;20.30;82.20
40556;DHT22;26250;45.422;11.100;2023-08-07T02:15:56;20.30;82.40
40556;DHT22;26250;45.422;11.100;2023-08-07T02:18:25;20.30;83.30
40556;DHT22;26250;45.422;11.100;2023-08-07T02:20:52;20.20;82.30
40556;DHT22;26250;45.422;11.100;2023-08-07T02:23:19;20.10;82.80
40556;DHT22;26250;45.422;11.100;2023-08-07T02:25:47;19.80;84.50
40556;DHT22;26250;45.422;11.100;2023-08-07T02:28:14;19.70;84.40
40556;DHT22;26250;45.422;11.100;2023-08-07T02:30:41;19.80;84.20
40556;DHT22;26250;45.422;11.100;2023-08-07T02:33:13;19.80;83.90
40556;DHT22;26250;45.422;11.100;2023-08-07T02:35:40;19.70;84.30
40556;DHT22;26250;45.422;11.100;2023-08-07T02:38:07;19.80;83.70
40556;DHT22;26250;45.422;11.100;2023-08-07T02:40:34;19.80;83.60
40556;DHT22;26250;45.422;11.100;2023-08-07T02:43:01;19.80;83.20
40556;DHT22;26250;45.422;11.100;2023-08-07T02:45:37;19.80;83.30
40556;DHT22;26250;45.422;11.100;2023-08-07T02:48:04;19.80;83.70
40556;DHT22;26250;45.422;11.100;2023-08-07T02:50:31;19.70;84.30
40556;DHT22;26250;45.422;11.100;2023-08-07T02:53:00;19.60;84.70
40556;DHT22;26250;45.422;11.100;2023-08-07T02:55:28;19.60;84.30
40556;DHT22;26250;45.422;11.100;2023-08-07T02:57:55;19.60;83.70
40556;DHT22;26250;45.422;11.100;2023-08-07T03:00:22;19.70;84.00
40556;DHT22;26250;45.422;11.100;2023-08-07T03:02:50;19.80;84.00
40556;DHT22;26250;45.422;11.100;2023-08-07T03:05:17;19.70;84.20
40556;DHT22;26250;45.422;11.100;2023-08-07T03:07:44;19.70;83.90
40556;DHT22;26250;45.422;11.100;2023-08-07T03:10:11;19.70;83.50
40556;DHT22;26250;45.422;11.100;2023-08-07T03:12:38;19.90;82.70
40556;DHT22;26250;45.422;11.100;2023-08-07T03:15:06;20.00;82.70
40556;DHT22;26250;45.422;11.100;2023-08-07T03:17:36;20.00;82.90
40556;DHT22;26250;45.422;11.100;2023-08-07T03:20:03;19.60;84.10
40556;DHT22;26250;45.422;11.100;2023-08-07T03:22:31;19.40;85.20
40556;DHT22;26250;45.422;11.100;2023-08-07T03:24:59;19.50;85.20
40556;DHT22;26250;45.422;11.100;2023-08-07T03:27:26;19.70;84.80
40556;DHT22;26250;45.422;11.100;2023-08-07T03:29:57;19.80;84.60
40556;DHT22;26250;45.422;11.100;2023-08-07T03:32:27;19.80;84.90
40556;DHT22;26250;45.422;11.100;2023-08-07T03:34:54;19.50;85.60
40556;DHT22;26250;45.422;11.100;2023-08-07T03:37:22;19.50;85.80
40556;DHT22;26250;45.422;11.100;2023-08-07T03:39:49;19.30;87.10
40556;DHT22;26250;45.422;11.100;2023-08-07T03:42:19;19.30;87.10
40556;DHT22;26250;45.422;11.100;2023-08-07T03:44:46;19.20;86.90
40556;DHT22;26250;45.422;11.100;2023-08-07T03:47:13;19.30;86.30
40556;DHT22;26250;45.422;11.100;2023-08-07T03:49:44;19.40;85.90
40556;DHT22;26250;45.422;11.100;2023-08-07T03:52:11;19.40;85.50
40556;DHT22;26250;45.422;11.100;2023-08-07T03:54:38;19.50;85.70
40556;DHT22;26250;45.422;11.100;2023-08-07T03:57:05;19.50;85.60
40556;DHT22;26250;45.422;11.100;2023-08-07T03:59:32;19.30;86.60
40556;DHT22;26250;45.422;11.100;2023-08-07T04:01:59;19.20;86.90
40556;DHT22;26250;45.422;11.100;2023-08-07T04:04:29;19.00;88.10
40556;DHT22;26250;45.422;11.100;2023-08-07T04:06:56;18.90;87.50
40556;DHT22;26250;45.422;11.100;2023-08-07T04:09:23;18.90;87.00
40556;DHT22;26250;45.422;11.100;2023-08-07T04:11:50;19.00;86.70
40556;DHT22;26250;45.422;11.100;2023-08-07T04:14:17;19.00;87.00
40556;DHT22;26250;45.422;11.100;2023-08-07T04:16:44;19.00;87.10
40556;DHT22;26250;45.422;11.100;2023-08-07T04:19:12;18.90;87.20
40556;DHT22;26250;45.422;11.100;2023-08-07T04:21:39;18.90;88.00
40556;DHT22;26250;45.422;11.100;2023-08-07T04:24:06;18.80;88.60
40556;DHT22;26250;45.422;11.100;2023-08-07T04:26:37;18.90;87.90
40556;DHT22;26250;45.422;11.100;2023-08-07T04:29:05;19.10;87.10
40556;DHT22;26250;45.422;11.100;2023-08-07T04:31:33;19.20;87.00
40556;DHT22;26250;45.422;11.100;2023-08-07T04:34:01;19.10;87.80
40556;DHT22;26250;45.422;11.100;2023-08-07T04:36:27;19.10;87.80
40556;DHT22;26250;45.422;11.100;2023-08-07T04:38:54;19.40;86.10
40556;DHT22;26250;45.422;11.100;2023-08-07T04:41:22;19.80;84.30
40556;DHT22;26250;45.422;11.100;2023-08-07T04:43:49;19.50;84.50
40556;DHT22;26250;45.422;11.100;2023-08-07T04:46:16;19.40;85.20
40556;DHT22;26250;45.422;11.100;2023-08-07T04:48:43;19.40;85.40
40556;DHT22;26250;45.422;11.100;2023-08-07T04:51:10;19.40;85.80
40556;DHT22;26250;45.422;11.100;2023-08-07T04:53:37;19.40;86.40
40556;DHT22;26250;45.422;11.100;2023-08-07T04:56:04;19.30;86.70
40556;DHT22;26250;45.422;11.100;2023-08-07T04:58:31;19.30;87.80
40556;DHT22;26250;45.422;11.100;2023-08-07T05:00:58;19.30;87.70
40556;DHT22;26250;45.422;11.100;2023-08-07T05:03:28;19.40;86.80
40556;DHT22;26250;45.422;11.100;2023-08-07T05:06:01;19.70;86.30
40556;DHT22;26250;45.422;11.100;2023-08-07T05:08:32;19.60;86.70
40556;DHT22;26250;45.422;11.100;2023-08-07T05:10:59;19.60;86.30
40556;DHT22;26250;45.422;11.100;2023-08-07T05:13:26;19.50;87.20
40556;DHT22;26250;45.422;11.100;2023-08-07T05:15:53;19.60;87.20
40556;DHT22;26250;45.422;11.100;2023-08-07T05:18:20;19.90;86.10
40556;DHT22;26250;45.422;11.100;2023-08-07T05:20:47;20.20;85.10
40556;DHT22;26250;45.422;11.100;2023-08-07T05:23:14;20.30;84.10
40556;DHT22;26250;45.422;11.100;2023-08-07T05:25:45;20.50;83.90
40556;DHT22;26250;45.422;11.100;2023-08-07T05:28:15;20.40;82.50
40556;DHT22;26250;45.422;11.100;2023-08-07T05:30:42;20.20;83.90
40556;DHT22;26250;45.422;11.100;2023-08-07T05:33:09;20.10;84.00
40556;DHT22;26250;45.422;11.100;2023-08-07T05:35:38;20.10;84.60
40556;DHT22;26250;45.422;11.100;2023-08-07T05:38:05;19.90;87.70
40556;DHT22;26250;45.422;11.100;2023-08-07T05:40:32;19.90;87.20
40556;DHT22;26250;45.422;11.100;2023-08-07T05:43:02;19.80;87.70
40556;DHT22;26250;45.422;11.100;2023-08-07T05:45:29;19.80;87.40
40556;DHT22;26250;45.422;11.100;2023-08-07T05:47:56;20.00;85.50
40556;DHT22;26250;45.422;11.100;2023-08-07T05:50:23;20.10;84.90
40556;DHT22;26250;45.422;11.100;2023-08-07T05:52:50;20.00;85.40
40556;DHT22;26250;45.422;11.100;2023-08-07T05:55:17;19.90;86.00
40556;DHT22;26250;45.422;11.100;2023-08-07T05:57:44;20.00;85.80
40556;DHT22;26250;45.422;11.100;2023-08-07T06:00:11;20.20;85.90
40556;DHT22;26250;45.422;11.100;2023-08-07T06:02:44;20.80;83.30
40556;DHT22;26250;45.422;11.100;2023-08-07T06:05:11;21.50;80.60
40556;DHT22;26250;45.422;11.100;2023-08-07T06:07:40;21.90;79.80
40556;DHT22;26250;45.422;11.100;2023-08-07T06:10:07;22.30;78.50
40556;DHT22;26250;45.422;11.100;2023-08-07T06:12:34;22.60;77.60
40556;DHT22;26250;45.422;11.100;2023-08-07T06:15:01;22.80;76.90
40556;DHT22;26250;45.422;11.100;2023-08-07T06:17:28;22.60;77.50
40556;DHT22;26250;45.422;11.100;2023-08-07T06:19:55;22.40;78.60
40556;DHT22;26250;45.422;11.100;2023-08-07T06:22:22;22.40;78.60
40556;DHT22;26250;45.422;11.100;2023-08-07T06:24:49;22.40;79.00
40556;DHT22;26250;45.422;11.100;2023-08-07T06:27:16;22.70;78.70
40556;DHT22;26250;45.422;11.100;2023-08-07T06:29:43;23.10;76.60
40556;DHT22;26250;45.422;11.100;2023-08-07T06:32:10;23.10;77.60
40556;DHT22;26250;45.422;11.100;2023-08-07T06:34:37;23.10;77.80
40556;DHT22;26250;45.422;11.100;2023-08-07T06:37:05;23.00;78.20
40556;DHT22;26250;45.422;11.100;2023-08-07T06:39:32;22.90;78.50
40556;DHT22;26250;45.422;11.100;2023-08-07T06:41:59;22.80;78.60
40556;DHT22;26250;45.422;11.100;2023-08-07T06:44:33;22.80;79.00
40556;DHT22;26250;45.422;11.100;2023-08-07T06:46:59;22.60;78.90
40556;DHT22;26250;45.422;11.100;2023-08-07T06:49:26;22.90;79.00
40556;DHT22;26250;45.422;11.100;2023-08-07T06:51:57;23.30;77.10
40556;DHT22;26250;45.422;11.100;2023-08-07T06:54:24;23.60;76.10
40556;DHT22;26250;45.422;11.100;2023-08-07T06:56:51;23.80;74.40
40556;DHT22;26250;45.422;11.100;2023-08-07T06:59:21;24.10;73.30
40556;DHT22;26250;45.422;11.100;2023-08-07T07:01:48;24.40;72.00
40556;DHT22;26250;45.422;11.100;2023-08-07T07:04:15;24.50;72.10
40556;DHT22;26250;45.422;11.100;2023-08-07T07:06:42;24.70;71.80
40556;DHT22;26250;45.422;11.100;2023-08-07T07:09:09;24.80;71.60
40556;DHT22;26250;45.422;11.100;2023-08-07T07:11:36;24.90;71.70
40556;DHT22;26250;45.422;11.100;2023-08-07T07:14:04;24.90;72.20
40556;DHT22;26250;45.422;11.100;2023-08-07T07:16:31;24.90;72.40
40556;DHT22;26250;45.422;11.100;2023-08-07T07:18:58;25.00;72.30
40556;DHT22;26250;45.422;11.100;2023-08-07T07:21:26;25.10;72.00
40556;DHT22;26250;45.422;11.100;2023-08-07T07:23:53;25.10;72.00
40556;DHT22;26250;45.422;11.100;2023-08-07T07:26:20;25.10;72.20
40556;DHT22;26250;45.422;11.100;2023-08-07T07:28:47;24.80;72.50
40556;DHT22;26250;45.422;11.100;2023-08-07T07:31:14;24.20;75.40
40556;DHT22;26250;45.422;11.100;2023-08-07T07:33:41;24.50;75.30
40556;DHT22;26250;45.422;11.100;2023-08-07T07:36:15;24.80;74.40
40556;DHT22;26250;45.422;11.100;2023-08-07T07:38:43;25.00;72.60
40556;DHT22;26250;45.422;11.100;2023-08-07T07:41:12;25.20;71.60
40556;DHT22;26250;45.422;11.100;2023-08-07T07:43:39;25.10;71.10
40556;DHT22;26250;45.422;11.100;2023-08-07T07:46:10;25.20;69.80
40556;DHT22;26250;45.422;11.100;2023-08-07T07:48:37;25.30;70.20
40556;DHT22;26250;45.422;11.100;2023-08-07T07:51:04;25.20;68.90
40556;DHT22;26250;45.422;11.100;2023-08-07T07:53:31;25.10;69.30
40556;DHT22;26250;45.422;11.100;2023-08-07T07:55:58;25.10;69.30
40556;DHT22;26250;45.422;11.100;2023-08-07T07:58:28;25.20;68.50
40556;DHT22;26250;45.422;11.100;2023-08-07T08:00:55;25.30;67.50
40556;DHT22;26250;45.422;11.100;2023-08-07T08:03:22;25.40;66.70
40556;DHT22;26250;45.422;11.100;2023-08-07T08:05:51;25.40;65.00
40556;DHT22;26250;45.422;11.100;2023-08-07T08:08:19;25.30;64.50
40556;DHT22;26250;45.422;11.100;2023-08-07T08:10:46;24.90;65.30
40556;DHT22;26250;45.422;11.100;2023-08-07T08:13:15;24.80;64.50
40556;DHT22;26250;45.422;11.100;2023-08-07T08:15:43;25.00;65.90
40556;DHT22;26250;45.422;11.100;2023-08-07T08:18:11;25.20;63.60
40556;DHT22;26250;45.422;11.100;2023-08-07T08:20:39;25.30;60.10
40556;DHT22;26250;45.422;11.100;2023-08-07T08:23:06;25.40;60.00
40556;DHT22;26250;45.422;11.100;2023-08-07T08:25:33;25.50;60.00
40556;DHT22;26250;45.422;11.100;2023-08-07T08:28:00;25.50;59.50
40556;DHT22;26250;45.422;11.100;2023-08-07T08:30:28;25.50;59.30
40556;DHT22;26250;45.422;11.100;2023-08-07T08:32:55;25.50;60.30
40556;DHT22;26250;45.422;11.100;2023-08-07T08:35:22;25.60;60.00
40556;DHT22;26250;45.422;11.100;2023-08-07T08:37:49;25.70;59.00
40556;DHT22;26250;45.422;11.100;2023-08-07T08:40:16;25.70;59.70
40556;DHT22;26250;45.422;11.100;2023-08-07T08:42:45;25.60;61.10
40556;DHT22;26250;45.422;11.100;2023-08-07T08:45:15;25.60;61.60
40556;DHT22;26250;45.422;11.100;2023-08-07T08:47:42;25.60;60.30
40556;DHT22;26250;45.422;11.100;2023-08-07T08:50:14;25.60;59.70
40556;DHT22;26250;45.422;11.100;2023-08-07T08:52:44;25.50;60.00
40556;DHT22;26250;45.422;11.100;2023-08-07T08:55:15;25.50;58.60
40556;DHT22;26250;45.422;11.100;2023-08-07T08:57:42;25.40;57.10
40556;DHT22;26250;45.422;11.100;2023-08-07T09:00:10;25.40;58.90
40556;DHT22;26250;45.422;11.100;2023-08-07T09:02:48;25.40;58.70
40556;DHT22;26250;45.422;11.100;2023-08-07T09:05:16;25.50;58.30
40556;DHT22;26250;45.422;11.100;2023-08-07T09:07:44;25.60;58.90
40556;DHT22;26250;45.422;11.100;2023-08-07T09:10:14;25.70;59.00
40556;DHT22;26250;45.422;11.100;2023-08-07T09:13:01;25.70;58.50
40556;DHT22;26250;45.422;11.100;2023-08-07T09:15:32;25.70;60.00
40556;DHT22;26250;45.422;11.100;2023-08-07T09:18:00;25.80;58.90
40556;DHT22;26250;45.422;11.100;2023-08-07T09:20:27;25.80;58.90
40556;DHT22;26250;45.422;11.100;2023-08-07T09:22:55;25.80;58.40
40556;DHT22;26250;45.422;11.100;2023-08-07T09:25:30;25.90;57.40
40556;DHT22;26250;45.422;11.100;2023-08-07T09:27:58;25.80;56.80
40556;DHT22;26250;45.422;11.100;2023-08-07T09:30:29;25.80;55.70
40556;DHT22;26250;45.422;11.100;2023-08-07T09:32:57;25.80;55.90
40556;DHT22;26250;45.422;11.100;2023-08-07T09:35:25;25.90;55.50
40556;DHT22;26250;45.422;11.100;2023-08-07T09:37:52;26.00;54.40
40556;DHT22;26250;45.422;11.100;2023-08-07T09:40:19;26.00;55.10
40556;DHT22;26250;45.422;11.100;2023-08-07T09:42:53;26.00;54.20
40556;DHT22;26250;45.422;11.100;2023-08-07T09:45:22;26.00;53.40
40556;DHT22;26250;45.422;11.100;2023-08-07T09:48:04;25.90;53.00
40556;DHT22;26250;45.422;11.100;2023-08-07T09:50:33;25.90;53.40
40556;DHT22;26250;45.422;11.100;2023-08-07T09:53:00;25.90;53.40
40556;DHT22;26250;45.422;11.100;2023-08-07T09:55:27;25.90;54.70
40556;DHT22;26250;45.422;11.100;2023-08-07T09:57:55;26.00;53.40
40556;DHT22;26250;45.422;11.100;2023-08-07T10:00:22;26.10;53.00
40556;DHT22;26250;45.422;11.100;2023-08-07T10:02:50;26.10;53.20
40556;DHT22;26250;45.422;11.100;2023-08-07T10:05:17;26.10;52.10
40556;DHT22;26250;45.422;11.100;2023-08-07T10:07:45;26.10;52.40
40556;DHT22;26250;45.422;11.100;2023-08-07T10:10:14;26.20;52.20
40556;DHT22;26250;45.422;11.100;2023-08-07T10:12:41;26.30;51.70
40556;DHT22;26250;45.422;11.100;2023-08-07T10:15:08;26.30;51.00
40556;DHT22;26250;45.422;11.100;2023-08-07T10:17:36;26.40;52.80
40556;DHT22;26250;45.422;11.100;2023-08-07T10:20:04;26.50;52.50
40556;DHT22;26250;45.422;11.100;2023-08-07T10:22:32;26.60;51.30
40556;DHT22;26250;45.422;11.100;2023-08-07T10:25:01;26.60;52.40
40556;DHT22;26250;45.422;11.100;2023-08-07T10:27:34;26.70;52.30
40556;DHT22;26250;45.422;11.100;2023-08-07T10:30:11;26.70;52.00
40556;DHT22;26250;45.422;11.100;2023-08-07T10:32:42;26.60;52.00
40556;DHT22;26250;45.422;11.100;2023-08-07T10:35:10;26.60;51.40
40556;DHT22;26250;45.422;11.100;2023-08-07T10:37:51;26.70;52.10
40556;DHT22;26250;45.422;11.100;2023-08-07T10:40:19;26.70;51.20
40556;DHT22;26250;45.422;11.100;2023-08-07T10:42:55;26.70;49.40
40556;DHT22;26250;45.422;11.100;2023-08-07T10:45:24;26.70;50.70
40556;DHT22;26250;45.422;11.100;2023-08-07T10:48:07;26.70;50.10
40556;DHT22;26250;45.422;11.100;2023-08-07T10:53:28;26.70;49.70
40556;DHT22;26250;45.422;11.100;2023-08-07T10:55:55;26.70;50.00
40556;DHT22;26250;45.422;11.100;2023-08-07T10:58:30;26.80;49.30
40556;DHT22;26250;45.422;11.100;2023-08-07T11:03:51;26.80;50.60
40556;DHT22;26250;45.422;11.100;2023-08-07T11:06:22;26.80;50.00
40556;DHT22;26250;45.422;11.100;2023-08-07T11:08:50;26.90;51.20
40556;DHT22;26250;45.422;11.100;2023-08-07T11:11:17;26.90;47.80
40556;DHT22;26250;45.422;11.100;2023-08-07T11:13:44;27.00;49.30
40556;DHT22;26250;45.422;11.100;2023-08-07T11:16:12;27.00;48.20
40556;DHT22;26250;45.422;11.100;2023-08-07T11:18:39;26.90;48.00
40556;DHT22;26250;45.422;11.100;2023-08-07T11:21:09;26.90;47.90
40556;DHT22;26250;45.422;11.100;2023-08-07T11:23:41;26.90;48.70
40556;DHT22;26250;45.422;11.100;2023-08-07T11:26:11;27.00;48.60
40556;DHT22;26250;45.422;11.100;2023-08-07T11:28:38;27.00;48.50
40556;DHT22;26250;45.422;11.100;2023-08-07T11:31:06;27.10;48.40
40556;DHT22;26250;45.422;11.100;2023-08-07T11:33:33;27.10;48.50
40556;DHT22;26250;45.422;11.100;2023-08-07T11:36:03;27.20;49.40
40556;DHT22;26250;45.422;11.100;2023-08-07T11:38:40;27.20;49.70
40556;DHT22;26250;45.422;11.100;2023-08-07T11:41:14;27.20;49.30
40556;DHT22;26250;45.422;11.100;2023-08-07T11:43:42;27.20;46.80
40556;DHT22;26250;45.422;11.100;2023-08-07T11:46:14;27.40;47.70
40556;DHT22;26250;45.422;11.100;2023-08-07T11:48:42;27.40;47.00
40556;DHT22;26250;45.422;11.100;2023-08-07T11:51:10;27.40;47.20
40556;DHT22;26250;45.422;11.100;2023-08-07T11:53:40;27.40;46.50
40556;DHT22;26250;45.422;11.100;2023-08-07T11:56:09;27.40;46.20
40556;DHT22;26250;45.422;11.100;2023-08-07T11:58:40;27.50;44.10
40556;DHT22;26250;45.422;11.100;2023-08-07T12:01:15;27.40;44.50
40556;DHT22;26250;45.422;11.100;2023-08-07T12:04:17;27.40;43.40
40556;DHT22;26250;45.422;11.100;2023-08-07T12:06:54;27.40;44.30
40556;DHT22;26250;45.422;11.100;2023-08-07T12:09:25;27.40;44.00
40556;DHT22;26250;45.422;11.100;2023-08-07T12:11:56;27.50;44.80
40556;DHT22;26250;45.422;11.100;2023-08-07T12:14:31;27.50;45.00
40556;DHT22;26250;45.422;11.100;2023-08-07T12:17:01;27.50;43.10
40556;DHT22;26250;45.422;11.100;2023-08-07T12:19:38;27.60;45.00
40556;DHT22;26250;45.422;11.100;2023-08-07T12:22:10;27.60;42.60
40556;DHT22;26250;45.422;11.100;2023-08-07T12:24:37;27.60;43.20
40556;DHT22;26250;45.422;11.100;2023-08-07T12:27:05;27.60;43.40
40556;DHT22;26250;45.422;11.100;2023-08-07T12:29:32;27.60;44.00
40556;DHT22;26250;45.422;11.100;2023-08-07T12:31:59;27.70;42.70
40556;DHT22;26250;45.422;11.100;2023-08-07T12:34:30;27.70;44.10
40556;DHT22;26250;45.422;11.100;2023-08-07T12:37:00;27.70;42.60
40556;DHT22;26250;45.422;11.100;2023-08-07T12:39:27;27.80;46.30
40556;DHT22;26250;45.422;11.100;2023-08-07T12:41:57;27.80;45.10
40556;DHT22;26250;45.422;11.100;2023-08-07T12:44:27;27.90;44.80
40556;DHT22;26250;45.422;11.100;2023-08-07T12:46:54;28.00;44.70
40556;DHT22;26250;45.422;11.100;2023-08-07T12:49:21;28.00;44.30
40556;DHT22;26250;45.422;11.100;2023-08-07T12:51:50;28.00;42.30
40556;DHT22;26250;45.422;11.100;2023-08-07T12:54:18;28.00;42.70
40556;DHT22;26250;45.422;11.100;2023-08-07T12:56:47;28.10;45.00
40556;DHT22;26250;45.422;11.100;2023-08-07T12:59:14;28.00;47.00
40556;DHT22;26250;45.422;11.100;2023-08-07T13:01:41;28.00;44.10
40556;DHT22;26250;45.422;11.100;2023-08-07T13:04:08;27.90;44.90
40556;DHT22;26250;45.422;11.100;2023-08-07T13:06:37;27.90;44.80
40556;DHT22;26250;45.422;11.100;2023-08-07T13:09:04;28.00;45.50
40556;DHT22;26250;45.422;11.100;2023-08-07T13:11:31;28.00;44.70
40556;DHT22;26250;45.422;11.100;2023-08-07T13:13:58;28.00;44.20
40556;DHT22;26250;45.422;11.100;2023-08-07T13:16:28;28.00;43.50
40556;DHT22;26250;45.422;11.100;2023-08-07T13:18:55;28.00;42.80
40556;DHT22;26250;45.422;11.100;2023-08-07T13:21:22;28.00;42.40
40556;DHT22;26250;45.422;11.100;2023-08-07T13:23:49;28.00;41.50
40556;DHT22;26250;45.422;11.100;2023-08-07T13:26:16;28.00;43.00
40556;DHT22;26250;45.422;11.100;2023-08-07T13:28:44;28.10;43.10
40556;DHT22;26250;45.422;11.100;2023-08-07T13:31:11;28.10;41.50
40556;DHT22;26250;45.422;11.100;2023-08-07T13:33:38;28.10;43.10
40556;DHT22;26250;45.422;11.100;2023-08-07T13:36:05;28.10;41.30
40556;DHT22;26250;45.422;11.100;2023-08-07T13:38:32;28.10;39.90
40556;DHT22;26250;45.422;11.100;2023-08-07T13:41:00;28.10;41.90
40556;DHT22;26250;45.422;11.100;2023-08-07T13:43:27;28.10;43.00
40556;DHT22;26250;45.422;11.100;2023-08-07T13:45:54;28.10;41.80
40556;DHT22;26250;45.422;11.100;2023-08-07T13:48:21;28.20;42.40
40556;DHT22;26250;45.422;11.100;2023-08-07T13:50:49;28.20;41.60
40556;DHT22;26250;45.422;11.100;2023-08-07T13:53:16;28.20;40.30
40556;DHT22;26250;45.422;11.100;2023-08-07T13:55:43;28.10;40.20
40556;DHT22;26250;45.422;11.100;2023-08-07T13:58:13;28.20;40.70
40556;DHT22;26250;45.422;11.100;2023-08-07T14:00:42;28.20;41.30
40556;DHT22;26250;45.422;11.100;2023-08-07T14:03:09;28.10;41.20
40556;DHT22;26250;45.422;11.100;2023-08-07T14:05:37;28.10;42.60
40556;DHT22;26250;45.422;11.100;2023-08-07T14:08:05;28.20;42.60
40556;DHT22;26250;45.422;11.100;2023-08-07T14:10:32;28.20;43.00
40556;DHT22;26250;45.422;11.100;2023-08-07T14:12:59;28.30;42.50
40556;DHT22;26250;45.422;11.100;2023-08-07T14:15:26;28.30;42.00
40556;DHT22;26250;45.422;11.100;2023-08-07T14:17:53;28.30;42.20
40556;DHT22;26250;45.422;11.100;2023-08-07T14:20:21;28.40;43.20
40556;DHT22;26250;45.422;11.100;2023-08-07T14:22:48;28.40;42.20
40556;DHT22;26250;45.422;11.100;2023-08-07T14:25:15;28.30;42.60
40556;DHT22;26250;45.422;11.100;2023-08-07T14:27:42;28.30;43.30
40556;DHT22;26250;45.422;11.100;2023-08-07T14:30:10;28.30;43.00
40556;DHT22;26250;45.422;11.100;2023-08-07T14:32:37;28.40;43.20
40556;DHT22;26250;45.422;11.100;2023-08-07T14:35:04;28.40;43.10
40556;DHT22;26250;45.422;11.100;2023-08-07T14:37:31;28.50;42.00
40556;DHT22;26250;45.422;11.100;2023-08-07T14:39:58;28.50;44.00
40556;DHT22;26250;45.422;11.100;2023-08-07T14:42:25;28.50;43.90
40556;DHT22;26250;45.422;11.100;2023-08-07T14:44:53;28.50;44.10
40556;DHT22;26250;45.422;11.100;2023-08-07T14:47:20;28.40;43.80
40556;DHT22;26250;45.422;11.100;2023-08-07T14:49:47;28.40;44.60
40556;DHT22;26250;45.422;11.100;2023-08-07T14:52:14;28.50;44.50
40556;DHT22;26250;45.422;11.100;2023-08-07T14:54:41;28.40;44.50
40556;DHT22;26250;45.422;11.100;2023-08-07T14:57:08;28.50;45.60
40556;DHT22;26250;45.422;11.100;2023-08-07T14:59:37;28.50;45.20
40556;DHT22;26250;45.422;11.100;2023-08-07T15:02:05;28.50;46.20
40556;DHT22;26250;45.422;11.100;2023-08-07T15:04:33;28.50;46.50
40556;DHT22;26250;45.422;11.100;2023-08-07T15:07:00;28.40;44.00
40556;DHT22;26250;45.422;11.100;2023-08-07T15:09:27;28.40;45.20
40556;DHT22;26250;45.422;11.100;2023-08-07T15:11:54;28.50;44.30
40556;DHT22;26250;45.422;11.100;2023-08-07T15:14:22;28.50;43.90
40556;DHT22;26250;45.422;11.100;2023-08-07T15:16:49;28.50;44.60
40556;DHT22;26250;45.422;11.100;2023-08-07T15:19:16;28.50;45.50
40556;DHT22;26250;45.422;11.100;2023-08-07T15:21:43;28.50;46.20
40556;DHT22;26250;45.422;11.100;2023-08-07T15:24:10;28.50;45.00
40556;DHT22;26250;45.422;11.100;2023-08-07T15:26:37;28.60;44.70
40556;DHT22;26250;45.422;11.100;2023-08-07T15:29:04;28.50;43.90
40556;DHT22;26250;45.422;11.100;2023-08-07T15:31:31;28.50;44.30